sensor_id;sensor_type;location;lat;lon;timestamp;pressure;altitude;pressure_sealevel;temperature;humidity
61757;BME280;57225;61.460;24.060;2022-11-14T00:00:20;101614.50;;;0.79;100.00
61757;BME280;57225;61.460;24.060;2022-11-14T00:03:06;101614.88;;;0.72;100.00
61757;BME280;57225;61.460;24.060;2022-11-14T00:05:51;101616.50;;;0.73;100.00
61757;BME280;57225;61.460;24.060;2022-11-14T00:08:35;101601.69;;;0.74;100.00
61757;BME280;57225;61.460;24.060;2022-11-14T00:11:20;101606.47;;;0.82;100.00
61757;BME280;57225;61.460;24.060;2022-11-14T00:14:04;101598.47;;;0.86;100.00
61757;BME280;57225;61.460;24.060;2022-11-14T00:16:48;101591.34;;;0.85;100.00
61757;BME280;57225;61.460;24.060;2022-11-14T00:19:33;101590.94;;;0.92;100.00
61757;BME280;57225;61.460;24.060;2022-11-14T00:22:17;101589.84;;;0.93;100.00
61757;BME280;57225;61.460;24.060;2022-11-14T00:25:01;101591.66;;;0.97;100.00
61757;BME280;57225;61.460;24.060;2022-11-14T00:27:46;101580.97;;;0.96;100.00
61757;BME280;57225;61.460;24.060;2022-11-14T00:30:30;101585.88;;;0.99;100.00
61757;BME280;57225;61.460;24.060;2022-11-14T00:33:15;101574.66;;;0.95;100.00
61757;BME280;57225;61.460;24.060;2022-11-14T00:35:59;101581.69;;;1.01;100.00
61757;BME280;57225;61.460;24.060;2022-11-14T00:38:44;101581.09;;;1.04;100.00
61757;BME280;57225;61.460;24.060;2022-11-14T00:41:28;101576.72;;;1.03;100.00
61757;BME280;57225;61.460;24.060;2022-11-14T00:44:13;101577.75;;;1.07;100.00
61757;BME280;57225;61.460;24.060;2022-11-14T00:46:57;101581.63;;;1.06;100.00
61757;BME280;57225;61.460;24.060;2022-11-14T00:49:42;101565.97;;;1.07;100.00
61757;BME280;57225;61.460;24.060;2022-11-14T00:52:26;101576.72;;;1.03;100.00
61757;BME280;57225;61.460;24.060;2022-11-14T00:55:10;101572.66;;;1.01;100.00
61757;BME280;57225;61.460;24.060;2022-11-14T00:57:55;101565.22;;;1.01;100.00
61757;BME280;57225;61.460;24.060;2022-11-14T01:00:39;101562.28;;;0.98;100.00
61757;BME280;57225;61.460;24.060;2022-11-14T01:03:24;101570.53;;;0.98;100.00
61757;BME280;57225;61.460;24.060;2022-11-14T01:06:10;101576.53;;;1.00;100.00
61757;BME280;57225;61.460;24.060;2022-11-14T01:08:54;101572.66;;;1.01;100.00
61757;BME280;57225;61.460;24.060;2022-11-14T01:11:39;101571.84;;;1.00;100.00
61757;BME280;57225;61.460;24.060;2022-11-14T01:14:23;101538.19;;;0.81;100.00
61757;BME280;57225;61.460;24.060;2022-11-14T01:17:08;101574.28;;;1.02;100.00
61757;BME280;57225;61.460;24.060;2022-11-14T01:19:52;101570.63;;;1.06;100.00
61757;BME280;57225;61.460;24.060;2022-11-14T01:22:36;101570.63;;;1.06;100.00
61757;BME280;57225;61.460;24.060;2022-11-14T01:25:21;101561.06;;;1.04;100.00
61757;BME280;57225;61.460;24.060;2022-11-14T01:28:14;101560.25;;;1.03;100.00
61757;BME280;57225;61.460;24.060;2022-11-14T01:31:14;101561.06;;;1.04;100.00
61757;BME280;57225;61.460;24.060;2022-11-14T01:33:59;101561.38;;;1.02;100.00
61757;BME280;57225;61.460;24.060;2022-11-14T01:36:43;101557.81;;;1.02;100.00
61757;BME280;57225;61.460;24.060;2022-11-14T01:39:28;101563.22;;;1.07;100.00
61757;BME280;57225;61.460;24.060;2022-11-14T01:42:12;101557.41;;;1.08;100.00
61757;BME280;57225;61.460;24.060;2022-11-14T01:44:58;101543.47;;;1.05;100.00
61757;BME280;57225;61.460;24.060;2022-11-14T01:47:45;101555.19;;;1.10;100.00
61757;BME280;57225;61.460;24.060;2022-11-14T01:50:30;101548.56;;;1.11;100.00
61757;BME280;57225;61.460;24.060;2022-11-14T01:53:14;101539.53;;;1.11;100.00
61757;BME280;57225;61.460;24.060;2022-11-14T01:56:02;101542.25;;;1.11;100.00
61757;BME280;57225;61.460;24.060;2022-11-14T01:58:52;101536.47;;;0.99;100.00
61757;BME280;57225;61.460;24.060;2022-11-14T02:01:43;101532.72;;;0.95;100.00
61757;BME280;57225;61.460;24.060;2022-11-14T02:04:33;101535.75;;;0.93;100.00
61757;BME280;57225;61.460;24.060;2022-11-14T02:07:18;101535.47;;;0.95;100.00
61757;BME280;57225;61.460;24.060;2022-11-14T02:10:06;101540.75;;;1.05;100.00
61757;BME280;57225;61.460;24.060;2022-11-14T02:12:51;101532.78;;;1.03;100.00
61757;BME280;57225;61.460;24.060;2022-11-14T02:15:36;101534.13;;;1.06;100.00
61757;BME280;57225;61.460;24.060;2022-11-14T02:18:20;101524.47;;;1.08;100.00
61757;BME280;57225;61.460;24.060;2022-11-14T02:21:05;101517.25;;;1.12;100.00
61757;BME280;57225;61.460;24.060;2022-11-14T02:23:49;101519.66;;;1.14;100.00
61757;BME280;57225;61.460;24.060;2022-11-14T02:26:33;101520.19;;;1.16;100.00
61757;BME280;57225;61.460;24.060;2022-11-14T02:29:18;101525.91;;;1.19;100.00
61757;BME280;57225;61.460;24.060;2022-11-14T02:32:02;101517.03;;;1.23;100.00
61757;BME280;57225;61.460;24.060;2022-11-14T02:34:46;101525.28;;;1.23;100.00
61757;BME280;57225;61.460;24.060;2022-11-14T02:37:31;101515.28;;;1.27;100.00
61757;BME280;57225;61.460;24.060;2022-11-14T02:40:15;101497.28;;;1.20;100.00
61757;BME280;57225;61.460;24.060;2022-11-14T02:43:00;101507.47;;;1.34;100.00
61757;BME280;57225;61.460;24.060;2022-11-14T02:45:44;101501.38;;;1.37;100.00
61757;BME280;57225;61.460;24.060;2022-11-14T02:48:29;101499.13;;;1.39;100.00
61757;BME280;57225;61.460;24.060;2022-11-14T02:51:13;101494.41;;;1.39;100.00
61757;BME280;57225;61.460;24.060;2022-11-14T02:53:57;101501.47;;;1.45;100.00
61757;BME280;57225;61.460;24.060;2022-11-14T02:56:42;101505.00;;;1.46;100.00
61757;BME280;57225;61.460;24.060;2022-11-14T02:59:27;101498.72;;;1.45;100.00
61757;BME280;57225;61.460;24.060;2022-11-14T03:02:12;101502.25;;;1.46;100.00
61757;BME280;57225;61.460;24.060;2022-11-14T03:04:57;101492.88;;;1.47;100.00
61757;BME280;57225;61.460;24.060;2022-11-14T03:07:41;101495.63;;;1.47;100.00
61757;BME280;57225;61.460;24.060;2022-11-14T03:10:25;101485.75;;;1.46;100.00
61757;BME280;57225;61.460;24.060;2022-11-14T03:13:10;101480.78;;;1.48;100.00
61757;BME280;57225;61.460;24.060;2022-11-14T03:15:54;101485.34;;;1.52;100.00
61757;BME280;57225;61.460;24.060;2022-11-14T03:18:39;101483.63;;;1.56;100.00
61757;BME280;57225;61.460;24.060;2022-11-14T03:21:23;101484.75;;;1.55;100.00
61757;BME280;57225;61.460;24.060;2022-11-14T03:24:08;101478.44;;;1.55;100.00
61757;BME280;57225;61.460;24.060;2022-11-14T03:26:52;101467.44;;;1.55;100.00
61757;BME280;57225;61.460;24.060;2022-11-14T03:29:37;101471.59;;;1.52;100.00
61757;BME280;57225;61.460;24.060;2022-11-14T03:32:21;101466.22;;;1.47;100.00
61757;BME280;57225;61.460;24.060;2022-11-14T03:35:06;101480.06;;;1.56;100.00
61757;BME280;57225;61.460;24.060;2022-11-14T03:37:50;101478.44;;;1.55;100.00
61757;BME280;57225;61.460;24.060;2022-11-14T03:40:39;101482.59;;;1.52;100.00
61757;BME280;57225;61.460;24.060;2022-11-14T03:43:24;101475.16;;;1.53;100.00
61757;BME280;57225;61.460;24.060;2022-11-14T03:46:08;101470.50;;;1.53;100.00
61757;BME280;57225;61.460;24.060;2022-11-14T03:48:52;101453.72;;;1.55;100.00
61757;BME280;57225;61.460;24.060;2022-11-14T03:51:37;101462.47;;;1.57;100.00
61757;BME280;57225;61.460;24.060;2022-11-14T03:54:22;101448.81;;;1.52;100.00
61757;BME280;57225;61.460;24.060;2022-11-14T03:57:06;101444.03;;;1.57;100.00
61757;BME280;57225;61.460;24.060;2022-11-14T03:59:50;101447.69;;;1.53;100.00
61757;BME280;57225;61.460;24.060;2022-11-14T04:02:35;101452.59;;;1.56;100.00
61757;BME280;57225;61.460;24.060;2022-11-14T04:05:19;101455.84;;;1.58;100.00
61757;BME280;57225;61.460;24.060;2022-11-14T04:08:07;101445.16;;;1.56;100.00
61757;BME280;57225;61.460;24.060;2022-11-14T04:10:51;101437.22;;;1.55;100.00
61757;BME280;57225;61.460;24.060;2022-11-14T04:13:35;101430.59;;;1.56;100.00
61757;BME280;57225;61.460;24.060;2022-11-14T04:16:20;101420.56;;;1.51;100.00
61757;BME280;57225;61.460;24.060;2022-11-14T04:19:04;101427.72;;;1.61;100.00
61757;BME280;57225;61.460;24.060;2022-11-14T04:21:49;101433.75;;;1.63;100.00
61757;BME280;57225;61.460;24.060;2022-11-14T04:24:33;101427.13;;;1.64;100.00
61757;BME280;57225;61.460;24.060;2022-11-14T04:27:18;101424.03;;;1.66;100.00
61757;BME280;57225;61.460;24.060;2022-11-14T04:30:03;101421.50;;;1.69;100.00
61757;BME280;57225;61.460;24.060;2022-11-14T04:32:48;101422.78;;;1.72;100.00
61757;BME280;57225;61.460;24.060;2022-11-14T04:35:32;101415.38;;;1.72;100.00
61757;BME280;57225;61.460;24.060;2022-11-14T04:38:17;101412.63;;;1.72;100.00
61757;BME280;57225;61.460;24.060;2022-11-14T04:41:01;101418.31;;;1.76;100.00
61757;BME280;57225;61.460;24.060;2022-11-14T04:43:45;101421.56;;;1.78;100.00
61757;BME280;57225;61.460;24.060;2022-11-14T04:46:30;101412.19;;;1.79;100.00
61757;BME280;57225;61.460;24.060;2022-11-14T04:49:15;101417.56;;;1.84;100.00
61757;BME280;57225;61.460;24.060;2022-11-14T04:51:59;101413.69;;;1.85;100.00
61757;BME280;57225;61.460;24.060;2022-11-14T04:54:43;101413.38;;;1.86;100.00
61757;BME280;57225;61.460;24.060;2022-11-14T04:57:28;101421.31;;;1.88;100.00
61757;BME280;57225;61.460;24.060;2022-11-14T05:00:13;101419.88;;;1.90;100.00
61757;BME280;57225;61.460;24.060;2022-11-14T05:02:58;101423.50;;;1.99;100.00
61757;BME280;57225;61.460;24.060;2022-11-14T05:05:43;101416.38;;;1.98;100.00
61757;BME280;57225;61.460;24.060;2022-11-14T05:08:27;101415.56;;;1.98;100.00
61757;BME280;57225;61.460;24.060;2022-11-14T05:11:16;101420.44;;;2.01;100.00
61757;BME280;57225;61.460;24.060;2022-11-14T05:14:01;101417.34;;;2.02;100.00
61757;BME280;57225;61.460;24.060;2022-11-14T05:16:46;101415.56;;;1.98;100.00
61757;BME280;57225;61.460;24.060;2022-11-14T05:19:30;101415.75;;;2.01;100.00
61757;BME280;57225;61.460;24.060;2022-11-14T05:22:15;101408.56;;;1.92;100.00
61757;BME280;57225;61.460;24.060;2022-11-14T05:24:59;101417.19;;;1.99;100.00
61757;BME280;57225;61.460;24.060;2022-11-14T05:27:43;101412.31;;;1.96;100.00
61757;BME280;57225;61.460;24.060;2022-11-14T05:30:28;101414.75;;;1.97;100.00
61757;BME280;57225;61.460;24.060;2022-11-14T05:33:12;101414.13;;;2.00;100.00
61757;BME280;57225;61.460;24.060;2022-11-14T05:36:04;101409.59;;;2.05;100.00
61757;BME280;57225;61.460;24.060;2022-11-14T05:38:49;101400.69;;;1.99;100.00
61757;BME280;57225;61.460;24.060;2022-11-14T05:41:34;101405.88;;;2.00;100.00
61757;BME280;57225;61.460;24.060;2022-11-14T05:44:18;101406.19;;;1.99;100.00
61757;BME280;57225;61.460;24.060;2022-11-14T05:47:03;101407.81;;;2.00;100.00
61757;BME280;57225;61.460;24.060;2022-11-14T05:49:47;101404.84;;;1.96;100.00
61757;BME280;57225;61.460;24.060;2022-11-14T05:52:32;101409.25;;;1.97;100.00
61757;BME280;57225;61.460;24.060;2022-11-14T05:55:16;101404.06;;;1.96;100.00
61757;BME280;57225;61.460;24.060;2022-11-14T05:58:00;101412.50;;;1.99;100.00
61757;BME280;57225;61.460;24.060;2022-11-14T06:00:45;101406.81;;;1.96;100.00
61757;BME280;57225;61.460;24.060;2022-11-14T06:03:35;101410.06;;;1.98;100.00
61757;BME280;57225;61.460;24.060;2022-11-14T06:06:21;101397.25;;;1.93;100.00
61757;BME280;57225;61.460;24.060;2022-11-14T06:09:06;101407.16;;;2.03;100.00
61757;BME280;57225;61.460;24.060;2022-11-14T06:11:50;101402.47;;;2.03;100.00
61757;BME280;57225;61.460;24.060;2022-11-14T06:14:35;101399.13;;;2.07;100.00
61757;BME280;57225;61.460;24.060;2022-11-14T06:17:19;101390.88;;;2.07;100.00
61757;BME280;57225;61.460;24.060;2022-11-14T06:20:04;101391.03;;;2.10;100.00
61757;BME280;57225;61.460;24.060;2022-11-14T06:22:53;101396.53;;;2.10;100.00
61757;BME280;57225;61.460;24.060;2022-11-14T06:25:37;101393.47;;;2.12;100.00
61757;BME280;57225;61.460;24.060;2022-11-14T06:28:21;101390.44;;;2.13;100.00
61757;BME280;57225;61.460;24.060;2022-11-14T06:31:05;101394.00;;;2.14;100.00
61757;BME280;57225;61.460;24.060;2022-11-14T06:33:50;101388.16;;;2.15;100.00
61757;BME280;57225;61.460;24.060;2022-11-14T06:36:35;101387.84;;;2.17;100.00
61757;BME280;57225;61.460;24.060;2022-11-14T06:39:19;101388.66;;;2.17;100.00
61757;BME280;57225;61.460;24.060;2022-11-14T06:42:04;101392.72;;;2.20;100.00
61757;BME280;57225;61.460;24.060;2022-11-14T06:44:48;101384.63;;;2.23;100.00
61757;BME280;57225;61.460;24.060;2022-11-14T06:47:34;101390.97;;;2.24;100.00
61757;BME280;57225;61.460;24.060;2022-11-14T06:50:18;101385.44;;;2.24;100.00
61757;BME280;57225;61.460;24.060;2022-11-14T06:53:03;101390.00;;;2.28;100.00
61757;BME280;57225;61.460;24.060;2022-11-14T06:55:58;101387.41;;;2.23;100.00
61757;BME280;57225;61.460;24.060;2022-11-14T06:58:44;101400.69;;;2.30;100.00
61757;BME280;57225;61.460;24.060;2022-11-14T07:01:29;101392.31;;;2.35;100.00
61757;BME280;57225;61.460;24.060;2022-11-14T07:04:13;101386.19;;;2.38;100.00
61757;BME280;57225;61.460;24.060;2022-11-14T07:06:58;101387.94;;;2.34;100.00
61757;BME280;57225;61.460;24.060;2022-11-14T07:09:42;101390.19;;;2.32;100.00
61757;BME280;57225;61.460;24.060;2022-11-14T07:12:27;101388.44;;;2.36;100.00
61757;BME280;57225;61.460;24.060;2022-11-14T07:15:12;101381.28;;;2.35;100.00
61757;BME280;57225;61.460;24.060;2022-11-14T07:17:57;101385.34;;;2.37;100.00
61757;BME280;57225;61.460;24.060;2022-11-14T07:20:42;101395.25;;;2.38;100.00
61757;BME280;57225;61.460;24.060;2022-11-14T07:23:27;101382.63;;;2.37;100.00
61757;BME280;57225;61.460;24.060;2022-11-14T07:26:11;101382.91;;;2.36;100.00
61757;BME280;57225;61.460;24.060;2022-11-14T07:28:56;101376.28;;;2.37;100.00
61757;BME280;57225;61.460;24.060;2022-11-14T07:31:40;101376.78;;;2.39;100.00
61757;BME280;57225;61.460;24.060;2022-11-14T07:34:25;101382.78;;;2.41;100.00
61757;BME280;57225;61.460;24.060;2022-11-14T07:37:09;101382.47;;;2.42;100.00
61757;BME280;57225;61.460;24.060;2022-11-14T07:39:54;101372.28;;;2.43;100.00
61757;BME280;57225;61.460;24.060;2022-11-14T07:42:38;101378.94;;;2.51;100.00
61757;BME280;57225;61.460;24.060;2022-11-14T07:45:22;101378.13;;;2.50;100.00
61757;BME280;57225;61.460;24.060;2022-11-14T07:48:07;101390.31;;;2.58;100.00
61757;BME280;57225;61.460;24.060;2022-11-14T07:50:51;101381.53;;;2.56;100.00
61757;BME280;57225;61.460;24.060;2022-11-14T07:53:36;101373.78;;;2.58;100.00
61757;BME280;57225;61.460;24.060;2022-11-14T07:56:20;101367.78;;;2.56;100.00
61757;BME280;57225;61.460;24.060;2022-11-14T07:59:05;101381.25;;;2.66;100.00
61757;BME280;57225;61.460;24.060;2022-11-14T08:01:49;101364.72;;;2.66;100.00
61757;BME280;57225;61.460;24.060;2022-11-14T08:04:33;101361.03;;;2.79;100.00
61757;BME280;57225;61.460;24.060;2022-11-14T08:07:18;101362.38;;;2.81;100.00
61757;BME280;57225;61.460;24.060;2022-11-14T08:10:02;101361.84;;;2.79;100.00
61757;BME280;57225;61.460;24.060;2022-11-14T08:12:47;101361.84;;;2.79;100.00
61757;BME280;57225;61.460;24.060;2022-11-14T08:15:31;101355.88;;;2.77;100.00
61757;BME280;57225;61.460;24.060;2022-11-14T08:18:17;101348.59;;;2.81;100.00
61757;BME280;57225;61.460;24.060;2022-11-14T08:21:04;101349.91;;;2.84;100.00
61757;BME280;57225;61.460;24.060;2022-11-14T08:23:49;101352.97;;;2.82;100.00
61757;BME280;57225;61.460;24.060;2022-11-14T08:26:33;101346.34;;;2.83;100.00
61757;BME280;57225;61.460;24.060;2022-11-14T08:29:18;101337.09;;;2.79;100.00
61757;BME280;57225;61.460;24.060;2022-11-14T08:32:02;101349.75;;;2.89;100.00
61757;BME280;57225;61.460;24.060;2022-11-14T08:34:46;101339.38;;;2.95;100.00
61757;BME280;57225;61.460;24.060;2022-11-14T08:37:31;101334.84;;;2.99;100.00
61757;BME280;57225;61.460;24.060;2022-11-14T08:40:15;101334.38;;;3.05;100.00
61757;BME280;57225;61.460;24.060;2022-11-14T08:43:00;101325.47;;;3.08;100.00
61757;BME280;57225;61.460;24.060;2022-11-14T08:45:45;101322.88;;;3.12;100.00
61757;BME280;57225;61.460;24.060;2022-11-14T08:48:30;101311.53;;;3.13;100.00
61757;BME280;57225;61.460;24.060;2022-11-14T08:51:14;101309.25;;;3.24;100.00
61757;BME280;57225;61.460;24.060;2022-11-14T08:53:59;101302.94;;;3.23;100.00
61757;BME280;57225;61.460;24.060;2022-11-14T08:56:43;101311.56;;;3.22;100.00
61757;BME280;57225;61.460;24.060;2022-11-14T08:59:27;101308.78;;;3.22;100.00
61757;BME280;57225;61.460;24.060;2022-11-14T09:02:12;101314.94;;;3.28;100.00
61757;BME280;57225;61.460;24.060;2022-11-14T09:04:57;101309.09;;;3.29;100.00
61757;BME280;57225;61.460;24.060;2022-11-14T09:07:41;101296.13;;;3.30;100.00
61757;BME280;57225;61.460;24.060;2022-11-14T09:10:26;101302.13;;;3.32;100.00
61757;BME280;57225;61.460;24.060;2022-11-14T09:13:10;101295.63;;;3.36;100.00
61757;BME280;57225;61.460;24.060;2022-11-14T09:15:54;101297.44;;;3.41;100.00
61757;BME280;57225;61.460;24.060;2022-11-14T09:18:39;101291.94;;;3.41;100.00
61757;BME280;57225;61.460;24.060;2022-11-14T09:21:23;101285.59;;;3.40;100.00
61757;BME280;57225;61.460;24.060;2022-11-14T09:24:08;101282.66;;;3.45;100.00
61757;BME280;57225;61.460;24.060;2022-11-14T09:26:53;101281.03;;;3.44;100.00
61757;BME280;57225;61.460;24.060;2022-11-14T09:29:37;101274.53;;;3.49;100.00
61757;BME280;57225;61.460;24.060;2022-11-14T09:32:21;101272.28;;;3.51;100.00
61757;BME280;57225;61.460;24.060;2022-11-14T09:35:06;101270.34;;;3.51;100.00
61757;BME280;57225;61.460;24.060;2022-11-14T09:38:01;101272.41;;;3.54;100.00
61757;BME280;57225;61.460;24.060;2022-11-14T09:46:41;101263.03;;;3.55;100.00
61757;BME280;57225;61.460;24.060;2022-11-14T09:49:39;101260.94;;;3.52;100.00
61757;BME280;57225;61.460;24.060;2022-11-14T09:55:31;101250.06;;;3.56;100.00
61757;BME280;57225;61.460;24.060;2022-11-14T09:58:18;101244.53;;;3.56;100.00
61757;BME280;57225;61.460;24.060;2022-11-14T10:01:35;101243.53;;;3.60;100.00
61757;BME280;57225;61.460;24.060;2022-11-14T10:05:46;101237.25;;;3.60;100.00
61757;BME280;57225;61.460;24.060;2022-11-14T10:11:32;101237.19;;;3.69;100.00
61757;BME280;57225;61.460;24.060;2022-11-14T10:17:15;101235.25;;;3.69;100.00
61757;BME280;57225;61.460;24.060;2022-11-14T10:20:26;101230.38;;;3.75;100.00
61757;BME280;57225;61.460;24.060;2022-11-14T10:23:27;101209.00;;;3.72;100.00
61757;BME280;57225;61.460;24.060;2022-11-14T10:26:23;101215.63;;;3.79;100.00
61757;BME280;57225;61.460;24.060;2022-11-14T10:32:46;101218.19;;;3.84;100.00
61757;BME280;57225;61.460;24.060;2022-11-14T10:38:28;101206.16;;;3.89;100.00
61757;BME280;57225;61.460;24.060;2022-11-14T10:41:15;101207.28;;;3.88;100.00
61757;BME280;57225;61.460;24.060;2022-11-14T10:44:01;101205.34;;;3.88;100.00
61757;BME280;57225;61.460;24.060;2022-11-14T10:46:54;101209.72;;;3.89;100.00
61757;BME280;57225;61.460;24.060;2022-11-14T10:49:40;101202.88;;;3.95;100.00
61757;BME280;57225;61.460;24.060;2022-11-14T10:52:38;101201.06;;;3.99;100.00
61757;BME280;57225;61.460;24.060;2022-11-14T10:55:26;101194.41;;;4.00;100.00
61757;BME280;57225;61.460;24.060;2022-11-14T10:58:12;101193.91;;;3.98;100.00
61757;BME280;57225;61.460;24.060;2022-11-14T11:01:34;101190.03;;;3.99;100.00
61757;BME280;57225;61.460;24.060;2022-11-14T11:04:28;101183.53;;;4.04;100.00
61757;BME280;57225;61.460;24.060;2022-11-14T11:07:25;101176.00;;;4.13;100.00
61757;BME280;57225;61.460;24.060;2022-11-14T11:10:28;101174.75;;;4.11;100.00
61757;BME280;57225;61.460;24.060;2022-11-14T11:13:53;101167.91;;;4.08;100.00
61757;BME280;57225;61.460;24.060;2022-11-14T11:16:38;101171.44;;;4.17;100.00
61757;BME280;57225;61.460;24.060;2022-11-14T11:19:24;101164.31;;;4.16;100.00
61757;BME280;57225;61.460;24.060;2022-11-14T11:22:28;101148.09;;;4.15;100.00
61757;BME280;57225;61.460;24.060;2022-11-14T11:25:29;101145.97;;;4.12;100.00
61757;BME280;57225;61.460;24.060;2022-11-14T11:28:19;101148.41;;;4.13;100.00
61757;BME280;57225;61.460;24.060;2022-11-14T11:31:06;101141.88;;;4.18;100.00
61757;BME280;57225;61.460;24.060;2022-11-14T11:33:51;101135.50;;;4.26;100.00
61757;BME280;57225;61.460;24.060;2022-11-14T11:36:42;101137.00;;;4.23;100.00
61757;BME280;57225;61.460;24.060;2022-11-14T11:39:34;101127.56;;;4.24;100.00
61757;BME280;57225;61.460;24.060;2022-11-14T11:42:40;101112.34;;;4.18;100.00
61757;BME280;57225;61.460;24.060;2022-11-14T11:45:27;101118.00;;;4.22;100.00
61757;BME280;57225;61.460;24.060;2022-11-14T11:48:18;101111.22;;;4.19;100.00
61757;BME280;57225;61.460;24.060;2022-11-14T11:51:05;101111.00;;;4.24;100.00
61757;BME280;57225;61.460;24.060;2022-11-14T11:54:03;101107.44;;;4.24;100.00
61757;BME280;57225;61.460;24.060;2022-11-14T11:56:54;101107.78;;;4.22;100.00
61757;BME280;57225;61.460;24.060;2022-11-14T11:59:45;101107.78;;;4.22;100.00
61757;BME280;57225;61.460;24.060;2022-11-14T12:02:31;101104.06;;;4.18;100.00
61757;BME280;57225;61.460;24.060;2022-11-14T12:05:24;101098.22;;;4.20;100.00
61757;BME280;57225;61.460;24.060;2022-11-14T12:11:21;101083.41;;;4.24;100.00
61757;BME280;57225;61.460;24.060;2022-11-14T12:17:26;101080.53;;;4.21;100.00
61757;BME280;57225;61.460;24.060;2022-11-14T12:23:31;101080.19;;;4.22;100.00
61757;BME280;57225;61.460;24.060;2022-11-14T12:32:57;101070.09;;;4.26;100.00
61757;BME280;57225;61.460;24.060;2022-11-14T12:35:52;101066.19;;;4.27;100.00
61757;BME280;57225;61.460;24.060;2022-11-14T12:38:51;101056.28;;;4.26;100.00
61757;BME280;57225;61.460;24.060;2022-11-14T12:41:38;101045.25;;;4.26;100.00
61757;BME280;57225;61.460;24.060;2022-11-14T12:47:13;101038.06;;;4.34;100.00
61757;BME280;57225;61.460;24.060;2022-11-14T12:49:59;101038.88;;;4.34;100.00
61757;BME280;57225;61.460;24.060;2022-11-14T12:52:48;101033.78;;;4.36;100.00
61757;BME280;57225;61.460;24.060;2022-11-14T13:07:28;101021.34;;;4.30;100.00
61757;BME280;57225;61.460;24.060;2022-11-14T13:10:36;101022.03;;;4.27;100.00
61757;BME280;57225;61.460;24.060;2022-11-14T13:13:21;101018.59;;;4.30;100.00
61757;BME280;57225;61.460;24.060;2022-11-14T13:16:29;101019.88;;;4.33;100.00
61757;BME280;57225;61.460;24.060;2022-11-14T13:19:33;101010.19;;;4.27;100.00
61757;BME280;57225;61.460;24.060;2022-11-14T13:22:41;101008.72;;;4.29;100.00
61757;BME280;57225;61.460;24.060;2022-11-14T13:25:26;101006.41;;;4.31;100.00
61757;BME280;57225;61.460;24.060;2022-11-14T13:28:51;101003.31;;;4.33;100.00
61757;BME280;57225;61.460;24.060;2022-11-14T13:34:58;101005.75;;;4.34;100.00
61757;BME280;57225;61.460;24.060;2022-11-14T13:38:12;101010.47;;;4.34;100.00
61757;BME280;57225;61.460;24.060;2022-11-14T13:50:54;100985.94;;;4.32;100.00
61757;BME280;57225;61.460;24.060;2022-11-14T13:53:40;100990.66;;;4.32;100.00
61757;BME280;57225;61.460;24.060;2022-11-14T13:56:30;100985.28;;;4.35;100.00
61757;BME280;57225;61.460;24.060;2022-11-14T13:59:33;100983.53;;;4.31;100.00
61757;BME280;57225;61.460;24.060;2022-11-14T14:05:57;100982.72;;;4.30;100.00
61757;BME280;57225;61.460;24.060;2022-11-14T14:12:32;100970.41;;;4.28;100.00
61757;BME280;57225;61.460;24.060;2022-11-14T14:15:46;100961.81;;;4.29;100.00
61757;BME280;57225;61.460;24.060;2022-11-14T14:18:52;100951.59;;;4.30;100.00
61757;BME280;57225;61.460;24.060;2022-11-14T14:22:01;100940.19;;;4.31;100.00
61757;BME280;57225;61.460;24.060;2022-11-14T14:25:13;100937.09;;;4.33;100.00
61757;BME280;57225;61.460;24.060;2022-11-14T14:31:16;100916.63;;;4.34;100.00
61757;BME280;57225;61.460;24.060;2022-11-14T14:34:29;100909.81;;;4.31;100.00
61757;BME280;57225;61.460;24.060;2022-11-14T14:37:20;100906.41;;;4.34;100.00
61757;BME280;57225;61.460;24.060;2022-11-14T14:40:06;100908.69;;;4.32;100.00
61757;BME280;57225;61.460;24.060;2022-11-14T14:42:53;100908.00;;;4.35;100.00
61757;BME280;57225;61.460;24.060;2022-11-14T14:45:47;100900.53;;;4.36;100.00
61757;BME280;57225;61.460;24.060;2022-11-14T14:48:39;100890.28;;;4.36;100.00
61757;BME280;57225;61.460;24.060;2022-11-14T14:51:30;100895.03;;;4.36;100.00
61757;BME280;57225;61.460;24.060;2022-11-14T14:54:20;100891.91;;;4.37;100.00
61757;BME280;57225;61.460;24.060;2022-11-14T14:57:14;100871.91;;;4.40;100.00
61757;BME280;57225;61.460;24.060;2022-11-14T15:00:02;100860.88;;;4.40;100.00
61757;BME280;57225;61.460;24.060;2022-11-14T15:02:48;100856.75;;;4.47;100.00
61757;BME280;57225;61.460;24.060;2022-11-14T15:05:33;100837.06;;;4.36;100.00
61757;BME280;57225;61.460;24.060;2022-11-14T15:08:17;100850.31;;;4.42;100.00
61757;BME280;57225;61.460;24.060;2022-11-14T15:11:02;100854.66;;;4.43;100.00
61757;BME280;57225;61.460;24.060;2022-11-14T15:13:51;100846.84;;;4.45;100.00
61757;BME280;57225;61.460;24.060;2022-11-14T15:16:36;100843.84;;;4.51;100.00
61757;BME280;57225;61.460;24.060;2022-11-14T15:19:27;100840.66;;;4.49;100.00
61757;BME280;57225;61.460;24.060;2022-11-14T15:27:57;100833.63;;;4.51;100.00
61757;BME280;57225;61.460;24.060;2022-11-14T15:30:55;100825.34;;;4.51;100.00
61757;BME280;57225;61.460;24.060;2022-11-14T15:33:41;100818.66;;;4.52;100.00
61757;BME280;57225;61.460;24.060;2022-11-14T15:36:25;100806.94;;;4.55;100.00
61757;BME280;57225;61.460;24.060;2022-11-14T15:39:28;100810.72;;;4.51;100.00
61757;BME280;57225;61.460;24.060;2022-11-14T15:42:13;100797.50;;;4.56;100.00
61757;BME280;57225;61.460;24.060;2022-11-14T15:44:58;100793.25;;;4.59;100.00
61757;BME280;57225;61.460;24.060;2022-11-14T15:47:42;100791.84;;;4.65;100.00